This is the latest recevied weather packets stored in our database for station/object SQ9PDE-13. If no packets are shown the sender has not sent any weather packets the latest 10 day(s).
| Time | Temp. | Humidity | Pressure | Rain* | Wind** | Luminosity | Snow |
|---|---|---|---|---|---|---|---|
| 1777615166 | 10.56° C | 62% | 1027.3 hPa | - | - | - | - |
| 1777614865 | 11.11° C | 65% | 1027.6 hPa | - | - | - | - |
| 1777614565 | 11.11° C | 63% | 1027.3 hPa | - | - | - | - |
| 1777614264 | 10.56° C | 63% | 1027.3 hPa | - | - | - | - |
| 1777613964 | 10° C | 64% | 1027.4 hPa | - | - | - | - |
| 1777613663 | 10° C | 63% | 1027.4 hPa | - | - | - | - |
| 1777613363 | 10° C | 63% | 1027.3 hPa | - | - | - | - |
| 1777613062 | 9.44° C | 64% | 1027.4 hPa | - | - | - | - |
| 1777612762 | 10° C | 63% | 1027.4 hPa | - | - | - | - |
| 1777612461 | 9.44° C | 65% | 1027.6 hPa | - | - | - | - |
| 1777612161 | 8.89° C | 65% | 1027.7 hPa | - | - | - | - |
| 1777611860 | 9.44° C | 64% | 1027.6 hPa | - | - | - | - |
| 1777611560 | 9.44° C | 68% | 1027.9 hPa | - | - | - | - |
| 1777611259 | 8.89° C | 68% | 1027.9 hPa | - | - | - | - |
| 1777610959 | 8.33° C | 68% | 1027.8 hPa | - | - | - | - |
| 1777610658 | 8.33° C | 68% | 1027.8 hPa | - | - | - | - |
| 1777610358 | 7.78° C | 65% | 1027.8 hPa | - | - | - | - |
| 1777610069 | 7.78° C | - | - | - | - | - | - |
| 1777610057 | 7.78° C | 66% | 1027.9 hPa | - | - | - | - |
| 1777609757 | 7.78° C | 65% | 1027.9 hPa | - | - | - | - |
| 1777609456 | 7.78° C | 64% | 1027.8 hPa | - | - | - | - |
| 1777609155 | 7.22° C | 62% | 1027.8 hPa | - | - | - | - |
| 1777608855 | 7.22° C | 62% | 1027.8 hPa | - | - | - | - |
| 1777608555 | 7.22° C | 60% | 1027.9 hPa | - | - | - | - |
| 1777608384 | 7.22° C | 59% | 1027.8 hPa | - | - | - | - |
* Rain since midnight (hover to see other rain measurements)
** Current wind speed in m/s (hover to see current wind gust speed)